sensor_id;sensor_type;location;lat;lon;timestamp;P1;durP1;ratioP1;P2;durP2;ratioP2
67715;SDS011;54508;43.238;25.306;2023-02-15T00:00:18;10.60;;;8.07;;
67715;SDS011;54508;43.238;25.306;2023-02-15T00:02:44;9.68;;;7.53;;
67715;SDS011;54508;43.238;25.306;2023-02-15T00:05:09;11.53;;;8.07;;
67715;SDS011;54508;43.238;25.306;2023-02-15T00:07:35;11.87;;;8.00;;
67715;SDS011;54508;43.238;25.306;2023-02-15T00:10:00;9.48;;;7.75;;
67715;SDS011;54508;43.238;25.306;2023-02-15T00:12:44;9.37;;;7.43;;
67715;SDS011;54508;43.238;25.306;2023-02-15T00:15:11;10.30;;;7.55;;
67715;SDS011;54508;43.238;25.306;2023-02-15T00:17:38;10.02;;;7.88;;
67715;SDS011;54508;43.238;25.306;2023-02-15T00:20:03;9.27;;;7.03;;
67715;SDS011;54508;43.238;25.306;2023-02-15T00:22:29;10.25;;;7.80;;
67715;SDS011;54508;43.238;25.306;2023-02-15T00:24:55;9.73;;;8.00;;
67715;SDS011;54508;43.238;25.306;2023-02-15T00:27:20;9.97;;;8.27;;
67715;SDS011;54508;43.238;25.306;2023-02-15T00:29:46;11.32;;;7.35;;
67715;SDS011;54508;43.238;25.306;2023-02-15T00:32:11;8.82;;;7.40;;
67715;SDS011;54508;43.238;25.306;2023-02-15T00:34:37;10.30;;;7.63;;
67715;SDS011;54508;43.238;25.306;2023-02-15T00:37:02;9.85;;;7.75;;
67715;SDS011;54508;43.238;25.306;2023-02-15T00:39:28;8.87;;;7.13;;
67715;SDS011;54508;43.238;25.306;2023-02-15T00:41:53;9.83;;;7.97;;
67715;SDS011;54508;43.238;25.306;2023-02-15T00:44:19;10.50;;;7.82;;
67715;SDS011;54508;43.238;25.306;2023-02-15T00:46:44;9.10;;;6.77;;
67715;SDS011;54508;43.238;25.306;2023-02-15T00:49:10;9.30;;;7.50;;
67715;SDS011;54508;43.238;25.306;2023-02-15T00:51:35;10.80;;;8.47;;
67715;SDS011;54508;43.238;25.306;2023-02-15T00:54:01;8.93;;;7.40;;
67715;SDS011;54508;43.238;25.306;2023-02-15T00:56:26;9.93;;;7.53;;
67715;SDS011;54508;43.238;25.306;2023-02-15T00:58:53;10.73;;;7.65;;
67715;SDS011;54508;43.238;25.306;2023-02-15T01:01:19;10.20;;;7.13;;
67715;SDS011;54508;43.238;25.306;2023-02-15T01:03:45;9.30;;;7.13;;
67715;SDS011;54508;43.238;25.306;2023-02-15T01:06:15;9.77;;;7.47;;
67715;SDS011;54508;43.238;25.306;2023-02-15T01:08:41;10.13;;;7.50;;
67715;SDS011;54508;43.238;25.306;2023-02-15T01:11:08;9.90;;;7.37;;
67715;SDS011;54508;43.238;25.306;2023-02-15T01:13:39;10.70;;;7.50;;
67715;SDS011;54508;43.238;25.306;2023-02-15T01:16:17;10.43;;;8.07;;
67715;SDS011;54508;43.238;25.306;2023-02-15T01:18:42;9.18;;;7.13;;
67715;SDS011;54508;43.238;25.306;2023-02-15T01:21:15;10.02;;;8.60;;
67715;SDS011;54508;43.238;25.306;2023-02-15T01:23:42;10.70;;;7.60;;
67715;SDS011;54508;43.238;25.306;2023-02-15T01:26:08;11.67;;;7.83;;
67715;SDS011;54508;43.238;25.306;2023-02-15T01:28:34;10.35;;;7.63;;
67715;SDS011;54508;43.238;25.306;2023-02-15T01:31:03;9.97;;;8.07;;
67715;SDS011;54508;43.238;25.306;2023-02-15T01:33:44;10.50;;;8.10;;
67715;SDS011;54508;43.238;25.306;2023-02-15T01:36:29;10.50;;;8.15;;
67715;SDS011;54508;43.238;25.306;2023-02-15T01:38:55;11.23;;;8.48;;
67715;SDS011;54508;43.238;25.306;2023-02-15T01:41:23;11.13;;;8.40;;
67715;SDS011;54508;43.238;25.306;2023-02-15T01:43:59;9.55;;;7.63;;
67715;SDS011;54508;43.238;25.306;2023-02-15T01:46:27;10.57;;;8.10;;
67715;SDS011;54508;43.238;25.306;2023-02-15T01:48:58;10.07;;;8.23;;
67715;SDS011;54508;43.238;25.306;2023-02-15T01:51:30;10.55;;;8.18;;
67715;SDS011;54508;43.238;25.306;2023-02-15T01:54:41;10.57;;;8.07;;
67715;SDS011;54508;43.238;25.306;2023-02-15T01:56:52;10.55;;;8.13;;
67715;SDS011;54508;43.238;25.306;2023-02-15T01:59:20;10.85;;;7.90;;
67715;SDS011;54508;43.238;25.306;2023-02-15T02:01:47;10.70;;;7.97;;
67715;SDS011;54508;43.238;25.306;2023-02-15T02:04:17;9.68;;;7.57;;
67715;SDS011;54508;43.238;25.306;2023-02-15T02:06:46;10.27;;;7.72;;
67715;SDS011;54508;43.238;25.306;2023-02-15T02:09:13;9.70;;;7.85;;
67715;SDS011;54508;43.238;25.306;2023-02-15T02:11:38;9.80;;;7.77;;
67715;SDS011;54508;43.238;25.306;2023-02-15T02:14:04;10.40;;;7.80;;
67715;SDS011;54508;43.238;25.306;2023-02-15T02:16:34;9.50;;;7.63;;
67715;SDS011;54508;43.238;25.306;2023-02-15T02:36:15;11.60;;;8.60;;
67715;SDS011;54508;43.238;25.306;2023-02-15T02:44:48;10.40;;;8.35;;
67715;SDS011;54508;43.238;25.306;2023-02-15T02:47:02;9.05;;;8.07;;
67715;SDS011;54508;43.238;25.306;2023-02-15T02:49:33;10.43;;;8.18;;
67715;SDS011;54508;43.238;25.306;2023-02-15T02:52:01;11.70;;;8.13;;
67715;SDS011;54508;43.238;25.306;2023-02-15T02:54:29;9.70;;;7.90;;
67715;SDS011;54508;43.238;25.306;2023-02-15T02:56:55;12.93;;;9.48;;
67715;SDS011;54508;43.238;25.306;2023-02-15T02:59:31;10.25;;;7.80;;
67715;SDS011;54508;43.238;25.306;2023-02-15T03:04:37;10.00;;;7.82;;
67715;SDS011;54508;43.238;25.306;2023-02-15T03:07:16;10.65;;;8.02;;
67715;SDS011;54508;43.238;25.306;2023-02-15T03:09:47;13.52;;;9.15;;
67715;SDS011;54508;43.238;25.306;2023-02-15T03:12:17;10.63;;;8.40;;
67715;SDS011;54508;43.238;25.306;2023-02-15T03:14:49;11.50;;;8.57;;
67715;SDS011;54508;43.238;25.306;2023-02-15T03:17:18;10.55;;;9.23;;
67715;SDS011;54508;43.238;25.306;2023-02-15T03:19:45;11.75;;;9.27;;
67715;SDS011;54508;43.238;25.306;2023-02-15T03:22:13;11.90;;;8.73;;
67715;SDS011;54508;43.238;25.306;2023-02-15T03:24:53;11.50;;;8.25;;
67715;SDS011;54508;43.238;25.306;2023-02-15T03:27:27;10.35;;;8.25;;
67715;SDS011;54508;43.238;25.306;2023-02-15T03:29:58;13.70;;;9.45;;
67715;SDS011;54508;43.238;25.306;2023-02-15T03:32:25;12.00;;;9.02;;
67715;SDS011;54508;43.238;25.306;2023-02-15T03:34:53;12.85;;;9.45;;
67715;SDS011;54508;43.238;25.306;2023-02-15T03:40:28;11.32;;;9.20;;
67715;SDS011;54508;43.238;25.306;2023-02-15T03:46:15;14.68;;;9.80;;
67715;SDS011;54508;43.238;25.306;2023-02-15T03:49:20;14.40;;;9.38;;
67715;SDS011;54508;43.238;25.306;2023-02-15T03:51:48;12.02;;;9.68;;
67715;SDS011;54508;43.238;25.306;2023-02-15T03:54:31;12.88;;;9.52;;
67715;SDS011;54508;43.238;25.306;2023-02-15T03:57:18;11.15;;;8.98;;
67715;SDS011;54508;43.238;25.306;2023-02-15T04:00:08;13.00;;;10.30;;
67715;SDS011;54508;43.238;25.306;2023-02-15T04:05:43;13.98;;;10.05;;
67715;SDS011;54508;43.238;25.306;2023-02-15T04:08:09;13.73;;;9.70;;
67715;SDS011;54508;43.238;25.306;2023-02-15T04:10:35;11.97;;;9.27;;
67715;SDS011;54508;43.238;25.306;2023-02-15T04:13:21;12.02;;;9.68;;
67715;SDS011;54508;43.238;25.306;2023-02-15T04:15:47;12.68;;;10.27;;
67715;SDS011;54508;43.238;25.306;2023-02-15T04:18:32;12.77;;;9.75;;
67715;SDS011;54508;43.238;25.306;2023-02-15T04:21:18;14.38;;;10.50;;
67715;SDS011;54508;43.238;25.306;2023-02-15T04:24:02;12.25;;;8.95;;
67715;SDS011;54508;43.238;25.306;2023-02-15T04:26:47;11.30;;;9.63;;
67715;SDS011;54508;43.238;25.306;2023-02-15T04:29:13;14.13;;;10.05;;
67715;SDS011;54508;43.238;25.306;2023-02-15T04:31:40;13.70;;;10.02;;
67715;SDS011;54508;43.238;25.306;2023-02-15T04:34:05;13.70;;;10.57;;
67715;SDS011;54508;43.238;25.306;2023-02-15T04:36:31;13.03;;;10.17;;
67715;SDS011;54508;43.238;25.306;2023-02-15T04:38:56;13.57;;;10.93;;
67715;SDS011;54508;43.238;25.306;2023-02-15T04:41:22;13.23;;;10.33;;
67715;SDS011;54508;43.238;25.306;2023-02-15T04:43:47;13.67;;;10.70;;
67715;SDS011;54508;43.238;25.306;2023-02-15T04:46:13;13.80;;;10.33;;
67715;SDS011;54508;43.238;25.306;2023-02-15T04:48:38;14.63;;;11.23;;
67715;SDS011;54508;43.238;25.306;2023-02-15T04:51:18;14.27;;;10.50;;
67715;SDS011;54508;43.238;25.306;2023-02-15T04:53:55;13.48;;;11.32;;
67715;SDS011;54508;43.238;25.306;2023-02-15T04:56:21;15.23;;;11.10;;
67715;SDS011;54508;43.238;25.306;2023-02-15T04:58:47;14.10;;;11.75;;
67715;SDS011;54508;43.238;25.306;2023-02-15T05:01:13;14.43;;;11.20;;
67715;SDS011;54508;43.238;25.306;2023-02-15T05:03:39;14.97;;;10.97;;
67715;SDS011;54508;43.238;25.306;2023-02-15T05:06:04;13.38;;;11.10;;
67715;SDS011;54508;43.238;25.306;2023-02-15T05:08:30;14.77;;;11.33;;
67715;SDS011;54508;43.238;25.306;2023-02-15T05:10:56;15.75;;;11.77;;
67715;SDS011;54508;43.238;25.306;2023-02-15T05:13:21;15.27;;;11.80;;
67715;SDS011;54508;43.238;25.306;2023-02-15T05:15:48;16.10;;;11.73;;
67715;SDS011;54508;43.238;25.306;2023-02-15T05:18:14;19.20;;;11.75;;
67715;SDS011;54508;43.238;25.306;2023-02-15T05:20:40;14.90;;;11.93;;
67715;SDS011;54508;43.238;25.306;2023-02-15T05:23:06;16.38;;;12.18;;
67715;SDS011;54508;43.238;25.306;2023-02-15T05:25:31;15.50;;;11.50;;
67715;SDS011;54508;43.238;25.306;2023-02-15T05:28:15;14.95;;;11.52;;
67715;SDS011;54508;43.238;25.306;2023-02-15T05:30:50;16.20;;;11.87;;
67715;SDS011;54508;43.238;25.306;2023-02-15T05:33:22;14.00;;;11.27;;
67715;SDS011;54508;43.238;25.306;2023-02-15T05:35:48;14.93;;;11.30;;
67715;SDS011;54508;43.238;25.306;2023-02-15T05:38:13;17.25;;;12.15;;
67715;SDS011;54508;43.238;25.306;2023-02-15T05:40:39;15.80;;;11.70;;
67715;SDS011;54508;43.238;25.306;2023-02-15T05:43:04;17.93;;;12.70;;
67715;SDS011;54508;43.238;25.306;2023-02-15T05:45:30;16.07;;;11.17;;
67715;SDS011;54508;43.238;25.306;2023-02-15T05:47:55;16.73;;;11.85;;
67715;SDS011;54508;43.238;25.306;2023-02-15T05:50:23;17.07;;;11.23;;
67715;SDS011;54508;43.238;25.306;2023-02-15T05:52:48;16.85;;;11.63;;
67715;SDS011;54508;43.238;25.306;2023-02-15T05:55:14;14.83;;;11.40;;
67715;SDS011;54508;43.238;25.306;2023-02-15T05:57:39;13.60;;;11.00;;
67715;SDS011;54508;43.238;25.306;2023-02-15T06:00:05;14.30;;;11.48;;
67715;SDS011;54508;43.238;25.306;2023-02-15T06:02:34;15.27;;;10.93;;
67715;SDS011;54508;43.238;25.306;2023-02-15T06:05:00;14.18;;;11.13;;
67715;SDS011;54508;43.238;25.306;2023-02-15T06:07:26;15.95;;;10.80;;
67715;SDS011;54508;43.238;25.306;2023-02-15T06:09:57;14.23;;;11.15;;
67715;SDS011;54508;43.238;25.306;2023-02-15T06:12:22;14.77;;;10.73;;
67715;SDS011;54508;43.238;25.306;2023-02-15T06:14:48;13.50;;;10.73;;
67715;SDS011;54508;43.238;25.306;2023-02-15T06:17:13;13.67;;;10.43;;
67715;SDS011;54508;43.238;25.306;2023-02-15T06:19:39;14.45;;;11.25;;
67715;SDS011;54508;43.238;25.306;2023-02-15T06:22:10;14.43;;;10.57;;
67715;SDS011;54508;43.238;25.306;2023-02-15T06:24:54;14.50;;;10.85;;
67715;SDS011;54508;43.238;25.306;2023-02-15T06:27:21;18.37;;;11.77;;
67715;SDS011;54508;43.238;25.306;2023-02-15T06:29:47;22.88;;;14.90;;
67715;SDS011;54508;43.238;25.306;2023-02-15T06:32:13;24.43;;;14.60;;
67715;SDS011;54508;43.238;25.306;2023-02-15T06:34:39;21.83;;;14.88;;
67715;SDS011;54508;43.238;25.306;2023-02-15T06:37:04;26.33;;;16.73;;
67715;SDS011;54508;43.238;25.306;2023-02-15T06:39:39;24.50;;;16.40;;
67715;SDS011;54508;43.238;25.306;2023-02-15T06:42:23;38.47;;;25.52;;
67715;SDS011;54508;43.238;25.306;2023-02-15T06:44:49;37.90;;;22.95;;
67715;SDS011;54508;43.238;25.306;2023-02-15T06:47:14;34.07;;;22.30;;
67715;SDS011;54508;43.238;25.306;2023-02-15T06:49:40;30.55;;;21.42;;
67715;SDS011;54508;43.238;25.306;2023-02-15T06:52:06;33.20;;;19.20;;
67715;SDS011;54508;43.238;25.306;2023-02-15T06:54:31;34.20;;;20.20;;
67715;SDS011;54508;43.238;25.306;2023-02-15T06:56:56;40.58;;;24.88;;
67715;SDS011;54508;43.238;25.306;2023-02-15T06:59:22;39.20;;;24.80;;
67715;SDS011;54508;43.238;25.306;2023-02-15T07:01:47;34.03;;;20.97;;
67715;SDS011;54508;43.238;25.306;2023-02-15T07:04:14;29.17;;;20.63;;
67715;SDS011;54508;43.238;25.306;2023-02-15T07:06:39;28.30;;;20.08;;
67715;SDS011;54508;43.238;25.306;2023-02-15T07:09:05;32.65;;;19.98;;
67715;SDS011;54508;43.238;25.306;2023-02-15T07:11:33;26.43;;;18.20;;
67715;SDS011;54508;43.238;25.306;2023-02-15T07:14:17;23.92;;;18.20;;
67715;SDS011;54508;43.238;25.306;2023-02-15T07:17:03;27.88;;;18.02;;
67715;SDS011;54508;43.238;25.306;2023-02-15T07:19:29;24.38;;;17.55;;
67715;SDS011;54508;43.238;25.306;2023-02-15T07:21:54;23.80;;;17.13;;
67715;SDS011;54508;43.238;25.306;2023-02-15T07:24:19;29.43;;;19.53;;
67715;SDS011;54508;43.238;25.306;2023-02-15T07:26:45;30.23;;;17.87;;
67715;SDS011;54508;43.238;25.306;2023-02-15T07:29:10;28.57;;;16.67;;
67715;SDS011;54508;43.238;25.306;2023-02-15T07:31:36;29.70;;;17.52;;
67715;SDS011;54508;43.238;25.306;2023-02-15T07:34:01;24.67;;;16.33;;
67715;SDS011;54508;43.238;25.306;2023-02-15T07:36:32;25.50;;;15.73;;
67715;SDS011;54508;43.238;25.306;2023-02-15T07:39:04;24.17;;;14.98;;
67715;SDS011;54508;43.238;25.306;2023-02-15T07:41:29;20.60;;;14.43;;
67715;SDS011;54508;43.238;25.306;2023-02-15T07:43:55;19.37;;;13.63;;
67715;SDS011;54508;43.238;25.306;2023-02-15T07:46:20;16.88;;;12.60;;
67715;SDS011;54508;43.238;25.306;2023-02-15T07:48:46;23.97;;;12.93;;
67715;SDS011;54508;43.238;25.306;2023-02-15T07:51:12;18.15;;;12.40;;
67715;SDS011;54508;43.238;25.306;2023-02-15T07:53:39;20.00;;;12.02;;
67715;SDS011;54508;43.238;25.306;2023-02-15T07:56:11;20.55;;;11.43;;
67715;SDS011;54508;43.238;25.306;2023-02-15T07:58:38;15.23;;;10.10;;
67715;SDS011;54508;43.238;25.306;2023-02-15T08:01:16;23.33;;;10.65;;
67715;SDS011;54508;43.238;25.306;2023-02-15T08:03:49;16.27;;;9.70;;
67715;SDS011;54508;43.238;25.306;2023-02-15T08:06:14;18.05;;;9.80;;
67715;SDS011;54508;43.238;25.306;2023-02-15T08:08:40;16.53;;;10.27;;
67715;SDS011;54508;43.238;25.306;2023-02-15T08:11:18;16.15;;;9.68;;
67715;SDS011;54508;43.238;25.306;2023-02-15T08:14:06;14.23;;;10.00;;
67715;SDS011;54508;43.238;25.306;2023-02-15T08:16:34;13.10;;;8.40;;
67715;SDS011;54508;43.238;25.306;2023-02-15T08:19:25;12.10;;;9.00;;
67715;SDS011;54508;43.238;25.306;2023-02-15T08:21:51;12.00;;;8.73;;
67715;SDS011;54508;43.238;25.306;2023-02-15T08:24:20;11.90;;;7.88;;
67715;SDS011;54508;43.238;25.306;2023-02-15T08:26:46;10.85;;;7.90;;
67715;SDS011;54508;43.238;25.306;2023-02-15T08:29:13;11.50;;;8.82;;
67715;SDS011;54508;43.238;25.306;2023-02-15T08:31:50;10.65;;;7.95;;
67715;SDS011;54508;43.238;25.306;2023-02-15T08:34:18;13.43;;;8.13;;
67715;SDS011;54508;43.238;25.306;2023-02-15T08:36:47;13.90;;;7.60;;
67715;SDS011;54508;43.238;25.306;2023-02-15T08:39:13;13.00;;;7.80;;
67715;SDS011;54508;43.238;25.306;2023-02-15T08:41:41;11.77;;;8.00;;
67715;SDS011;54508;43.238;25.306;2023-02-15T08:44:08;15.65;;;8.10;;
67715;SDS011;54508;43.238;25.306;2023-02-15T08:46:39;14.50;;;8.50;;
67715;SDS011;54508;43.238;25.306;2023-02-15T08:49:10;15.75;;;7.60;;
67715;SDS011;54508;43.238;25.306;2023-02-15T08:51:46;11.10;;;7.20;;
67715;SDS011;54508;43.238;25.306;2023-02-15T08:54:19;13.10;;;7.80;;
67715;SDS011;54508;43.238;25.306;2023-02-15T08:56:45;17.67;;;7.80;;
67715;SDS011;54508;43.238;25.306;2023-02-15T08:59:13;11.23;;;7.27;;
67715;SDS011;54508;43.238;25.306;2023-02-15T09:01:40;14.98;;;7.85;;
67715;SDS011;54508;43.238;25.306;2023-02-15T09:04:06;11.45;;;7.60;;
67715;SDS011;54508;43.238;25.306;2023-02-15T09:06:33;14.17;;;7.73;;
67715;SDS011;54508;43.238;25.306;2023-02-15T09:08:59;13.27;;;7.50;;
67715;SDS011;54508;43.238;25.306;2023-02-15T09:11:28;12.48;;;7.85;;
67715;SDS011;54508;43.238;25.306;2023-02-15T09:14:09;11.13;;;7.23;;
67715;SDS011;54508;43.238;25.306;2023-02-15T09:16:38;14.95;;;8.02;;
67715;SDS011;54508;43.238;25.306;2023-02-15T09:19:04;15.98;;;7.55;;
67715;SDS011;54508;43.238;25.306;2023-02-15T09:21:30;11.88;;;7.22;;
67715;SDS011;54508;43.238;25.306;2023-02-15T09:23:58;15.07;;;7.70;;
67715;SDS011;54508;43.238;25.306;2023-02-15T09:26:25;12.57;;;6.93;;
67715;SDS011;54508;43.238;25.306;2023-02-15T09:28:52;11.90;;;7.70;;
67715;SDS011;54508;43.238;25.306;2023-02-15T09:31:21;13.65;;;7.57;;
67715;SDS011;54508;43.238;25.306;2023-02-15T09:33:51;10.43;;;6.85;;
67715;SDS011;54508;43.238;25.306;2023-02-15T09:36:18;12.40;;;6.82;;
67715;SDS011;54508;43.238;25.306;2023-02-15T09:38:47;9.93;;;7.05;;
67715;SDS011;54508;43.238;25.306;2023-02-15T09:49:45;10.02;;;6.50;;
67715;SDS011;54508;43.238;25.306;2023-02-15T09:57:32;11.17;;;6.73;;
67715;SDS011;54508;43.238;25.306;2023-02-15T10:02:46;9.18;;;6.35;;
67715;SDS011;54508;43.238;25.306;2023-02-15T10:14:28;10.60;;;6.68;;
67715;SDS011;54508;43.238;25.306;2023-02-15T10:18:01;10.45;;;6.70;;
67715;SDS011;54508;43.238;25.306;2023-02-15T10:26:44;8.73;;;5.60;;
67715;SDS011;54508;43.238;25.306;2023-02-15T10:31:49;9.48;;;6.05;;
67715;SDS011;54508;43.238;25.306;2023-02-15T10:34:43;12.63;;;6.40;;
67715;SDS011;54508;43.238;25.306;2023-02-15T10:48:17;33.58;;;8.20;;
67715;SDS011;54508;43.238;25.306;2023-02-15T10:50:49;39.92;;;7.72;;
67715;SDS011;54508;43.238;25.306;2023-02-15T10:56:22;23.67;;;8.10;;
67715;SDS011;54508;43.238;25.306;2023-02-15T11:01:56;20.23;;;6.85;;
67715;SDS011;54508;43.238;25.306;2023-02-15T11:07:14;15.37;;;6.00;;
67715;SDS011;54508;43.238;25.306;2023-02-15T11:09:50;12.90;;;7.00;;
67715;SDS011;54508;43.238;25.306;2023-02-15T11:12:21;11.45;;;7.05;;
67715;SDS011;54508;43.238;25.306;2023-02-15T11:14:50;12.23;;;6.55;;
67715;SDS011;54508;43.238;25.306;2023-02-15T11:17:22;13.95;;;6.60;;
67715;SDS011;54508;43.238;25.306;2023-02-15T11:20:18;12.47;;;5.90;;
67715;SDS011;54508;43.238;25.306;2023-02-15T11:22:49;12.75;;;5.53;;
67715;SDS011;54508;43.238;25.306;2023-02-15T11:25:25;8.23;;;5.63;;
67715;SDS011;54508;43.238;25.306;2023-02-15T11:27:55;8.77;;;6.25;;
67715;SDS011;54508;43.238;25.306;2023-02-15T11:30:21;8.07;;;6.50;;
67715;SDS011;54508;43.238;25.306;2023-02-15T11:32:52;11.80;;;5.93;;
67715;SDS011;54508;43.238;25.306;2023-02-15T11:40:32;13.55;;;6.35;;
67715;SDS011;54508;43.238;25.306;2023-02-15T11:43:04;15.45;;;6.60;;
67715;SDS011;54508;43.238;25.306;2023-02-15T11:45:32;16.67;;;7.07;;
67715;SDS011;54508;43.238;25.306;2023-02-15T11:48:08;17.63;;;7.18;;
67715;SDS011;54508;43.238;25.306;2023-02-15T11:50:35;17.55;;;7.70;;
67715;SDS011;54508;43.238;25.306;2023-02-15T11:53:02;14.03;;;7.33;;
67715;SDS011;54508;43.238;25.306;2023-02-15T11:55:29;18.75;;;7.20;;
67715;SDS011;54508;43.238;25.306;2023-02-15T12:03:02;18.63;;;7.30;;
67715;SDS011;54508;43.238;25.306;2023-02-15T12:06:01;11.60;;;6.53;;
67715;SDS011;54508;43.238;25.306;2023-02-15T12:08:37;10.27;;;6.55;;
67715;SDS011;54508;43.238;25.306;2023-02-15T12:11:09;9.80;;;6.30;;
67715;SDS011;54508;43.238;25.306;2023-02-15T12:13:59;10.70;;;6.00;;
67715;SDS011;54508;43.238;25.306;2023-02-15T12:16:26;9.23;;;6.80;;
67715;SDS011;54508;43.238;25.306;2023-02-15T12:18:53;19.23;;;7.33;;
67715;SDS011;54508;43.238;25.306;2023-02-15T12:21:28;14.68;;;6.60;;
67715;SDS011;54508;43.238;25.306;2023-02-15T12:26:43;12.68;;;6.97;;
67715;SDS011;54508;43.238;25.306;2023-02-15T12:29:15;12.13;;;6.70;;
67715;SDS011;54508;43.238;25.306;2023-02-15T12:31:45;20.50;;;6.82;;
67715;SDS011;54508;43.238;25.306;2023-02-15T12:34:16;10.52;;;5.82;;
67715;SDS011;54508;43.238;25.306;2023-02-15T12:36:49;9.77;;;6.20;;
67715;SDS011;54508;43.238;25.306;2023-02-15T12:39:24;8.23;;;5.88;;
67715;SDS011;54508;43.238;25.306;2023-02-15T12:44:55;8.82;;;6.25;;
67715;SDS011;54508;43.238;25.306;2023-02-15T12:47:40;8.52;;;5.82;;
67715;SDS011;54508;43.238;25.306;2023-02-15T12:50:08;7.83;;;5.90;;
67715;SDS011;54508;43.238;25.306;2023-02-15T12:52:42;9.98;;;6.38;;
67715;SDS011;54508;43.238;25.306;2023-02-15T12:55:22;8.35;;;5.47;;
67715;SDS011;54508;43.238;25.306;2023-02-15T13:00:33;9.48;;;5.60;;
67715;SDS011;54508;43.238;25.306;2023-02-15T13:02:59;11.93;;;5.83;;
67715;SDS011;54508;43.238;25.306;2023-02-15T13:05:33;8.13;;;6.07;;
67715;SDS011;54508;43.238;25.306;2023-02-15T13:08:09;9.48;;;5.53;;
67715;SDS011;54508;43.238;25.306;2023-02-15T13:10:52;7.85;;;5.35;;
67715;SDS011;54508;43.238;25.306;2023-02-15T13:13:23;8.05;;;5.35;;
67715;SDS011;54508;43.238;25.306;2023-02-15T13:16:15;8.43;;;5.47;;
67715;SDS011;54508;43.238;25.306;2023-02-15T13:18:44;7.28;;;5.43;;
67715;SDS011;54508;43.238;25.306;2023-02-15T13:21:33;7.45;;;5.20;;
67715;SDS011;54508;43.238;25.306;2023-02-15T13:24:39;7.75;;;5.55;;
67715;SDS011;54508;43.238;25.306;2023-02-15T13:27:28;6.47;;;4.85;;
67715;SDS011;54508;43.238;25.306;2023-02-15T13:30:02;6.40;;;5.23;;
67715;SDS011;54508;43.238;25.306;2023-02-15T13:32:38;7.03;;;5.35;;
67715;SDS011;54508;43.238;25.306;2023-02-15T13:35:06;6.70;;;5.22;;
67715;SDS011;54508;43.238;25.306;2023-02-15T13:37:52;7.80;;;5.32;;
67715;SDS011;54508;43.238;25.306;2023-02-15T14:12:44;6.28;;;5.28;;
67715;SDS011;54508;43.238;25.306;2023-02-15T14:31:42;8.00;;;5.65;;
67715;SDS011;54508;43.238;25.306;2023-02-15T14:37:39;6.28;;;5.30;;
67715;SDS011;54508;43.238;25.306;2023-02-15T14:40:32;5.97;;;5.13;;
67715;SDS011;54508;43.238;25.306;2023-02-15T14:46:30;6.95;;;5.30;;
67715;SDS011;54508;43.238;25.306;2023-02-15T14:49:03;8.90;;;6.20;;
67715;SDS011;54508;43.238;25.306;2023-02-15T14:56:42;8.23;;;5.93;;
67715;SDS011;54508;43.238;25.306;2023-02-15T15:01:36;10.87;;;6.27;;
67715;SDS011;54508;43.238;25.306;2023-02-15T15:04:04;9.13;;;6.72;;
67715;SDS011;54508;43.238;25.306;2023-02-15T15:07:17;9.60;;;6.30;;
67715;SDS011;54508;43.238;25.306;2023-02-15T15:09:26;8.05;;;6.10;;
67715;SDS011;54508;43.238;25.306;2023-02-15T15:11:53;12.25;;;7.13;;
67715;SDS011;54508;43.238;25.306;2023-02-15T15:16:59;14.48;;;7.05;;
67715;SDS011;54508;43.238;25.306;2023-02-15T15:22:26;11.52;;;6.35;;
67715;SDS011;54508;43.238;25.306;2023-02-15T15:27:48;10.80;;;6.70;;
67715;SDS011;54508;43.238;25.306;2023-02-15T15:32:51;11.70;;;7.50;;
67715;SDS011;54508;43.238;25.306;2023-02-15T15:50:19;10.88;;;7.93;;
67715;SDS011;54508;43.238;25.306;2023-02-15T15:52:53;13.05;;;9.35;;
67715;SDS011;54508;43.238;25.306;2023-02-15T15:55:25;12.23;;;8.23;;
67715;SDS011;54508;43.238;25.306;2023-02-15T15:57:55;15.75;;;8.82;;
67715;SDS011;54508;43.238;25.306;2023-02-15T16:00:37;14.00;;;9.05;;
67715;SDS011;54508;43.238;25.306;2023-02-15T16:03:13;12.48;;;8.95;;
67715;SDS011;54508;43.238;25.306;2023-02-15T16:05:40;18.65;;;9.93;;
67715;SDS011;54508;43.238;25.306;2023-02-15T16:08:05;14.40;;;9.47;;
67715;SDS011;54508;43.238;25.306;2023-02-15T16:10:31;19.07;;;10.37;;
67715;SDS011;54508;43.238;25.306;2023-02-15T16:12:59;17.88;;;10.85;;
67715;SDS011;54508;43.238;25.306;2023-02-15T16:15:27;14.55;;;10.63;;
67715;SDS011;54508;43.238;25.306;2023-02-15T16:17:58;15.32;;;10.63;;
67715;SDS011;54508;43.238;25.306;2023-02-15T16:20:34;18.35;;;10.40;;
67715;SDS011;54508;43.238;25.306;2023-02-15T16:26:07;15.65;;;9.68;;
67715;SDS011;54508;43.238;25.306;2023-02-15T16:28:36;15.68;;;10.05;;
67715;SDS011;54508;43.238;25.306;2023-02-15T16:31:07;13.02;;;9.85;;
67715;SDS011;54508;43.238;25.306;2023-02-15T16:33:36;16.38;;;11.23;;
67715;SDS011;54508;43.238;25.306;2023-02-15T16:36:03;13.43;;;10.13;;
67715;SDS011;54508;43.238;25.306;2023-02-15T16:41:29;13.75;;;9.57;;
67715;SDS011;54508;43.238;25.306;2023-02-15T16:43:54;14.07;;;10.07;;
67715;SDS011;54508;43.238;25.306;2023-02-15T16:48:48;14.60;;;10.13;;
67715;SDS011;54508;43.238;25.306;2023-02-15T16:51:18;12.85;;;10.48;;
67715;SDS011;54508;43.238;25.306;2023-02-15T16:53:49;13.35;;;10.20;;
67715;SDS011;54508;43.238;25.306;2023-02-15T16:56:15;16.45;;;11.30;;
67715;SDS011;54508;43.238;25.306;2023-02-15T16:58:44;18.85;;;12.75;;
67715;SDS011;54508;43.238;25.306;2023-02-15T17:01:14;18.08;;;12.15;;
67715;SDS011;54508;43.238;25.306;2023-02-15T17:03:40;20.63;;;13.40;;
67715;SDS011;54508;43.238;25.306;2023-02-15T17:06:25;20.17;;;13.02;;
67715;SDS011;54508;43.238;25.306;2023-02-15T17:08:52;23.13;;;13.65;;
67715;SDS011;54508;43.238;25.306;2023-02-15T17:11:18;19.40;;;14.45;;
67715;SDS011;54508;43.238;25.306;2023-02-15T17:16:42;20.55;;;15.13;;
67715;SDS011;54508;43.238;25.306;2023-02-15T17:21:51;21.48;;;16.83;;
67715;SDS011;54508;43.238;25.306;2023-02-15T17:24:43;23.95;;;17.13;;
67715;SDS011;54508;43.238;25.306;2023-02-15T17:27:12;26.77;;;17.73;;
67715;SDS011;54508;43.238;25.306;2023-02-15T17:29:43;25.85;;;18.05;;
67715;SDS011;54508;43.238;25.306;2023-02-15T17:32:16;25.27;;;18.47;;
67715;SDS011;54508;43.238;25.306;2023-02-15T17:37:24;26.05;;;18.92;;
67715;SDS011;54508;43.238;25.306;2023-02-15T17:39:55;27.00;;;18.95;;
67715;SDS011;54508;43.238;25.306;2023-02-15T17:42:24;25.60;;;19.27;;
67715;SDS011;54508;43.238;25.306;2023-02-15T17:44:50;28.20;;;18.70;;
67715;SDS011;54508;43.238;25.306;2023-02-15T17:47:22;26.10;;;19.33;;
67715;SDS011;54508;43.238;25.306;2023-02-15T17:49:49;28.67;;;20.83;;
67715;SDS011;54508;43.238;25.306;2023-02-15T17:52:15;31.98;;;20.70;;
67715;SDS011;54508;43.238;25.306;2023-02-15T17:54:42;27.25;;;19.80;;
67715;SDS011;54508;43.238;25.306;2023-02-15T17:57:27;24.77;;;19.88;;
67715;SDS011;54508;43.238;25.306;2023-02-15T17:59:53;25.87;;;20.07;;
67715;SDS011;54508;43.238;25.306;2023-02-15T18:02:37;29.88;;;20.30;;
67715;SDS011;54508;43.238;25.306;2023-02-15T18:05:21;25.17;;;20.02;;
67715;SDS011;54508;43.238;25.306;2023-02-15T18:08:25;29.25;;;21.45;;
67715;SDS011;54508;43.238;25.306;2023-02-15T18:11:11;27.83;;;20.92;;
67715;SDS011;54508;43.238;25.306;2023-02-15T18:13:55;29.90;;;21.27;;